sensor_id;sensor_type;location;lat;lon;timestamp;temperature;humidity
52321;DHT22;38261;54.090;13.382;2023-04-10T00:01:05;3.40;99.90
52321;DHT22;38261;54.090;13.382;2023-04-10T00:02:28;3.40;99.90
52321;DHT22;38261;54.090;13.382;2023-04-10T00:03:50;3.40;99.90
52321;DHT22;38261;54.090;13.382;2023-04-10T00:05:13;3.40;99.90
52321;DHT22;38261;54.090;13.382;2023-04-10T00:06:35;3.40;99.90
52321;DHT22;38261;54.090;13.382;2023-04-10T00:07:57;3.40;99.90
52321;DHT22;38261;54.090;13.382;2023-04-10T00:09:19;3.40;99.90
52321;DHT22;38261;54.090;13.382;2023-04-10T00:10:41;3.40;99.90
52321;DHT22;38261;54.090;13.382;2023-04-10T00:12:04;3.40;99.90
52321;DHT22;38261;54.090;13.382;2023-04-10T00:13:26;3.30;99.90
52321;DHT22;38261;54.090;13.382;2023-04-10T00:14:48;3.30;99.90
52321;DHT22;38261;54.090;13.382;2023-04-10T00:16:10;3.30;99.90
52321;DHT22;38261;54.090;13.382;2023-04-10T00:17:32;3.30;99.90
52321;DHT22;38261;54.090;13.382;2023-04-10T00:18:54;3.30;99.90
52321;DHT22;38261;54.090;13.382;2023-04-10T00:20:16;3.20;99.90
52321;DHT22;38261;54.090;13.382;2023-04-10T00:21:39;3.20;99.90
52321;DHT22;38261;54.090;13.382;2023-04-10T00:23:01;3.20;99.90
52321;DHT22;38261;54.090;13.382;2023-04-10T00:24:23;3.10;99.90
52321;DHT22;38261;54.090;13.382;2023-04-10T00:25:46;3.10;99.90
52321;DHT22;38261;54.090;13.382;2023-04-10T00:27:09;3.10;99.90
52321;DHT22;38261;54.090;13.382;2023-04-10T00:28:31;3.10;99.90
52321;DHT22;38261;54.090;13.382;2023-04-10T00:29:53;3.00;99.90
52321;DHT22;38261;54.090;13.382;2023-04-10T00:31:15;3.00;99.90
52321;DHT22;38261;54.090;13.382;2023-04-10T00:32:37;3.00;99.90
52321;DHT22;38261;54.090;13.382;2023-04-10T00:33:59;3.00;99.90
52321;DHT22;38261;54.090;13.382;2023-04-10T00:35:21;3.00;99.90
52321;DHT22;38261;54.090;13.382;2023-04-10T00:36:44;3.00;99.90
52321;DHT22;38261;54.090;13.382;2023-04-10T00:38:07;3.00;99.90
52321;DHT22;38261;54.090;13.382;2023-04-10T00:39:29;3.00;99.90
52321;DHT22;38261;54.090;13.382;2023-04-10T00:40:51;3.00;99.90
52321;DHT22;38261;54.090;13.382;2023-04-10T00:42:13;3.10;99.90
52321;DHT22;38261;54.090;13.382;2023-04-10T00:43:35;3.00;99.90
52321;DHT22;38261;54.090;13.382;2023-04-10T00:44:58;3.10;99.90
52321;DHT22;38261;54.090;13.382;2023-04-10T00:46:21;3.00;99.90
52321;DHT22;38261;54.090;13.382;2023-04-10T00:47:43;3.10;99.90
52321;DHT22;38261;54.090;13.382;2023-04-10T00:49:06;3.10;99.90
52321;DHT22;38261;54.090;13.382;2023-04-10T00:50:30;3.10;99.90
52321;DHT22;38261;54.090;13.382;2023-04-10T00:51:53;3.10;99.90
52321;DHT22;38261;54.090;13.382;2023-04-10T00:53:18;3.10;99.90
52321;DHT22;38261;54.090;13.382;2023-04-10T00:54:40;3.10;99.90
52321;DHT22;38261;54.090;13.382;2023-04-10T00:56:02;3.10;99.90
52321;DHT22;38261;54.090;13.382;2023-04-10T00:57:24;3.10;99.90
52321;DHT22;38261;54.090;13.382;2023-04-10T00:58:47;3.10;99.90
52321;DHT22;38261;54.090;13.382;2023-04-10T01:00:10;3.10;99.90
52321;DHT22;38261;54.090;13.382;2023-04-10T01:01:33;3.10;99.90
52321;DHT22;38261;54.090;13.382;2023-04-10T01:02:55;3.00;99.90
52321;DHT22;38261;54.090;13.382;2023-04-10T01:04:18;3.00;99.90
52321;DHT22;38261;54.090;13.382;2023-04-10T01:06:46;3.00;99.90
52321;DHT22;38261;54.090;13.382;2023-04-10T01:12:01;3.00;99.90
52321;DHT22;38261;54.090;13.382;2023-04-10T01:15:12;2.90;99.90
52321;DHT22;38261;54.090;13.382;2023-04-10T01:16:42;2.80;99.90
52321;DHT22;38261;54.090;13.382;2023-04-10T01:21:23;2.80;99.90
52321;DHT22;38261;54.090;13.382;2023-04-10T01:29:45;2.70;99.90
52321;DHT22;38261;54.090;13.382;2023-04-10T01:31:13;2.70;99.90
52321;DHT22;38261;54.090;13.382;2023-04-10T01:32:38;2.70;99.90
52321;DHT22;38261;54.090;13.382;2023-04-10T01:34:08;2.70;99.90
52321;DHT22;38261;54.090;13.382;2023-04-10T01:35:32;2.70;99.90
52321;DHT22;38261;54.090;13.382;2023-04-10T01:37:00;2.60;99.90
52321;DHT22;38261;54.090;13.382;2023-04-10T01:38:24;2.60;99.90
52321;DHT22;38261;54.090;13.382;2023-04-10T01:40:03;2.60;99.90
52321;DHT22;38261;54.090;13.382;2023-04-10T01:41:30;2.60;99.90
52321;DHT22;38261;54.090;13.382;2023-04-10T01:44:28;2.50;99.90
52321;DHT22;38261;54.090;13.382;2023-04-10T01:45:51;2.50;99.90
52321;DHT22;38261;54.090;13.382;2023-04-10T01:47:14;2.50;99.90
52321;DHT22;38261;54.090;13.382;2023-04-10T01:48:40;2.50;99.90
52321;DHT22;38261;54.090;13.382;2023-04-10T01:50:03;2.50;99.90
52321;DHT22;38261;54.090;13.382;2023-04-10T01:51:28;2.50;99.90
52321;DHT22;38261;54.090;13.382;2023-04-10T01:52:51;2.50;99.90
52321;DHT22;38261;54.090;13.382;2023-04-10T01:54:14;2.50;99.90
52321;DHT22;38261;54.090;13.382;2023-04-10T01:55:38;2.50;99.90
52321;DHT22;38261;54.090;13.382;2023-04-10T01:57:00;2.50;99.90
52321;DHT22;38261;54.090;13.382;2023-04-10T01:58:25;2.50;99.90
52321;DHT22;38261;54.090;13.382;2023-04-10T01:59:49;2.50;99.90
52321;DHT22;38261;54.090;13.382;2023-04-10T02:01:18;2.50;99.90
52321;DHT22;38261;54.090;13.382;2023-04-10T02:02:50;2.50;99.90
52321;DHT22;38261;54.090;13.382;2023-04-10T02:04:13;2.50;99.90
52321;DHT22;38261;54.090;13.382;2023-04-10T02:05:57;2.40;99.90
52321;DHT22;38261;54.090;13.382;2023-04-10T02:08:10;2.40;99.90
52321;DHT22;38261;54.090;13.382;2023-04-10T02:10:55;2.20;99.90
52321;DHT22;38261;54.090;13.382;2023-04-10T02:12:25;2.40;99.90
52321;DHT22;38261;54.090;13.382;2023-04-10T02:13:49;2.40;99.90
52321;DHT22;38261;54.090;13.382;2023-04-10T02:15:16;2.40;99.90
52321;DHT22;38261;54.090;13.382;2023-04-10T02:16:40;2.40;99.90
52321;DHT22;38261;54.090;13.382;2023-04-10T02:18:04;2.40;99.90
52321;DHT22;38261;54.090;13.382;2023-04-10T02:19:28;2.40;99.90
52321;DHT22;38261;54.090;13.382;2023-04-10T02:20:53;2.40;99.90
52321;DHT22;38261;54.090;13.382;2023-04-10T02:22:16;2.40;99.90
52321;DHT22;38261;54.090;13.382;2023-04-10T02:23:38;2.40;99.90
52321;DHT22;38261;54.090;13.382;2023-04-10T02:25:03;2.40;99.90
52321;DHT22;38261;54.090;13.382;2023-04-10T02:26:26;2.40;99.90
52321;DHT22;38261;54.090;13.382;2023-04-10T02:27:48;2.40;99.90
52321;DHT22;38261;54.090;13.382;2023-04-10T02:29:10;2.40;99.90
52321;DHT22;38261;54.090;13.382;2023-04-10T02:30:33;2.30;99.90
52321;DHT22;38261;54.090;13.382;2023-04-10T02:31:55;2.30;99.90
52321;DHT22;38261;54.090;13.382;2023-04-10T02:33:17;2.30;99.90
52321;DHT22;38261;54.090;13.382;2023-04-10T02:34:39;2.30;99.90
52321;DHT22;38261;54.090;13.382;2023-04-10T02:36:04;2.30;99.90
52321;DHT22;38261;54.090;13.382;2023-04-10T02:37:27;2.30;99.90
52321;DHT22;38261;54.090;13.382;2023-04-10T02:38:50;2.30;99.90
52321;DHT22;38261;54.090;13.382;2023-04-10T02:40:12;2.30;99.90
52321;DHT22;38261;54.090;13.382;2023-04-10T02:41:34;2.30;99.90
52321;DHT22;38261;54.090;13.382;2023-04-10T02:42:56;2.30;99.90
52321;DHT22;38261;54.090;13.382;2023-04-10T02:44:18;2.30;99.90
52321;DHT22;38261;54.090;13.382;2023-04-10T02:45:41;2.30;99.90
52321;DHT22;38261;54.090;13.382;2023-04-10T02:47:03;2.30;99.90
52321;DHT22;38261;54.090;13.382;2023-04-10T02:48:25;2.20;99.90
52321;DHT22;38261;54.090;13.382;2023-04-10T02:49:48;2.30;99.90
52321;DHT22;38261;54.090;13.382;2023-04-10T02:51:10;2.30;99.90
52321;DHT22;38261;54.090;13.382;2023-04-10T02:52:32;2.30;99.90
52321;DHT22;38261;54.090;13.382;2023-04-10T02:53:54;2.30;99.90
52321;DHT22;38261;54.090;13.382;2023-04-10T02:55:17;2.30;99.90
52321;DHT22;38261;54.090;13.382;2023-04-10T02:56:39;2.30;99.90
52321;DHT22;38261;54.090;13.382;2023-04-10T02:58:01;2.30;99.90
52321;DHT22;38261;54.090;13.382;2023-04-10T02:59:23;2.30;99.90
52321;DHT22;38261;54.090;13.382;2023-04-10T03:00:49;2.10;99.90
52321;DHT22;38261;54.090;13.382;2023-04-10T03:02:12;2.20;99.90
52321;DHT22;38261;54.090;13.382;2023-04-10T03:03:34;2.20;99.90
52321;DHT22;38261;54.090;13.382;2023-04-10T03:04:57;2.20;99.90
52321;DHT22;38261;54.090;13.382;2023-04-10T03:06:19;2.20;99.90
52321;DHT22;38261;54.090;13.382;2023-04-10T03:07:42;2.20;99.90
52321;DHT22;38261;54.090;13.382;2023-04-10T03:09:04;2.20;99.90
52321;DHT22;38261;54.090;13.382;2023-04-10T03:10:26;2.10;99.90
52321;DHT22;38261;54.090;13.382;2023-04-10T03:11:49;2.10;99.90
52321;DHT22;38261;54.090;13.382;2023-04-10T03:13:11;2.10;99.90
52321;DHT22;38261;54.090;13.382;2023-04-10T03:14:33;2.10;99.90
52321;DHT22;38261;54.090;13.382;2023-04-10T03:15:55;2.10;99.90
52321;DHT22;38261;54.090;13.382;2023-04-10T03:17:17;2.00;99.90
52321;DHT22;38261;54.090;13.382;2023-04-10T03:18:39;2.00;99.90
52321;DHT22;38261;54.090;13.382;2023-04-10T03:20:02;2.00;99.90
52321;DHT22;38261;54.090;13.382;2023-04-10T03:21:24;2.00;99.90
52321;DHT22;38261;54.090;13.382;2023-04-10T03:22:46;2.00;99.90
52321;DHT22;38261;54.090;13.382;2023-04-10T03:24:08;1.90;99.90
52321;DHT22;38261;54.090;13.382;2023-04-10T03:25:33;1.90;99.90
52321;DHT22;38261;54.090;13.382;2023-04-10T03:26:55;1.80;99.90
52321;DHT22;38261;54.090;13.382;2023-04-10T03:28:17;1.80;99.90
52321;DHT22;38261;54.090;13.382;2023-04-10T03:29:39;1.70;99.90
52321;DHT22;38261;54.090;13.382;2023-04-10T03:31:02;1.70;99.90
52321;DHT22;38261;54.090;13.382;2023-04-10T03:32:25;1.70;99.90
52321;DHT22;38261;54.090;13.382;2023-04-10T03:33:48;1.70;99.90
52321;DHT22;38261;54.090;13.382;2023-04-10T03:35:11;1.70;99.90
52321;DHT22;38261;54.090;13.382;2023-04-10T03:36:33;1.70;99.90
52321;DHT22;38261;54.090;13.382;2023-04-10T03:37:55;1.70;99.90
52321;DHT22;38261;54.090;13.382;2023-04-10T03:39:17;1.70;99.90
52321;DHT22;38261;54.090;13.382;2023-04-10T03:40:39;1.70;99.90
52321;DHT22;38261;54.090;13.382;2023-04-10T03:42:01;1.70;99.90
52321;DHT22;38261;54.090;13.382;2023-04-10T03:43:24;1.70;99.90
52321;DHT22;38261;54.090;13.382;2023-04-10T03:44:46;1.70;99.90
52321;DHT22;38261;54.090;13.382;2023-04-10T03:46:08;1.70;99.90
52321;DHT22;38261;54.090;13.382;2023-04-10T03:47:30;1.70;99.90
52321;DHT22;38261;54.090;13.382;2023-04-10T03:48:53;1.70;99.90
52321;DHT22;38261;54.090;13.382;2023-04-10T03:50:15;1.70;99.90
52321;DHT22;38261;54.090;13.382;2023-04-10T03:51:37;1.80;99.90
52321;DHT22;38261;54.090;13.382;2023-04-10T03:52:59;1.80;99.90
52321;DHT22;38261;54.090;13.382;2023-04-10T03:54:22;1.80;99.90
52321;DHT22;38261;54.090;13.382;2023-04-10T03:55:44;1.80;99.90
52321;DHT22;38261;54.090;13.382;2023-04-10T03:57:06;1.80;99.90
52321;DHT22;38261;54.090;13.382;2023-04-10T03:58:28;1.80;99.90
52321;DHT22;38261;54.090;13.382;2023-04-10T03:59:50;1.80;99.90
52321;DHT22;38261;54.090;13.382;2023-04-10T04:01:12;1.80;99.90
52321;DHT22;38261;54.090;13.382;2023-04-10T04:02:35;1.80;99.90
52321;DHT22;38261;54.090;13.382;2023-04-10T04:03:57;1.80;99.90
52321;DHT22;38261;54.090;13.382;2023-04-10T04:05:20;1.80;99.90
52321;DHT22;38261;54.090;13.382;2023-04-10T04:06:42;1.80;99.90
52321;DHT22;38261;54.090;13.382;2023-04-10T04:08:04;1.80;99.90
52321;DHT22;38261;54.090;13.382;2023-04-10T04:09:27;1.80;99.90
52321;DHT22;38261;54.090;13.382;2023-04-10T04:10:49;1.80;99.90
52321;DHT22;38261;54.090;13.382;2023-04-10T04:12:11;1.80;99.90
52321;DHT22;38261;54.090;13.382;2023-04-10T04:13:34;1.80;99.90
52321;DHT22;38261;54.090;13.382;2023-04-10T04:14:56;1.90;99.90
52321;DHT22;38261;54.090;13.382;2023-04-10T04:16:18;1.80;99.90
52321;DHT22;38261;54.090;13.382;2023-04-10T04:17:40;1.90;99.90
52321;DHT22;38261;54.090;13.382;2023-04-10T04:19:02;1.90;99.90
52321;DHT22;38261;54.090;13.382;2023-04-10T04:20:25;1.90;99.90
52321;DHT22;38261;54.090;13.382;2023-04-10T04:21:47;1.90;99.90
52321;DHT22;38261;54.090;13.382;2023-04-10T04:23:09;1.90;99.90
52321;DHT22;38261;54.090;13.382;2023-04-10T04:24:31;2.00;99.90
52321;DHT22;38261;54.090;13.382;2023-04-10T04:25:53;2.00;99.90
52321;DHT22;38261;54.090;13.382;2023-04-10T04:27:17;2.00;99.90
52321;DHT22;38261;54.090;13.382;2023-04-10T04:28:41;2.00;99.90
52321;DHT22;38261;54.090;13.382;2023-04-10T04:30:03;2.10;99.90
52321;DHT22;38261;54.090;13.382;2023-04-10T04:31:26;2.10;99.90
52321;DHT22;38261;54.090;13.382;2023-04-10T04:32:53;2.10;99.90
52321;DHT22;38261;54.090;13.382;2023-04-10T04:34:15;2.20;99.90
52321;DHT22;38261;54.090;13.382;2023-04-10T04:35:37;2.20;99.90
52321;DHT22;38261;54.090;13.382;2023-04-10T04:37:00;2.30;99.90
52321;DHT22;38261;54.090;13.382;2023-04-10T04:38:23;2.30;99.90
52321;DHT22;38261;54.090;13.382;2023-04-10T04:39:45;2.40;99.90
52321;DHT22;38261;54.090;13.382;2023-04-10T04:41:07;2.50;99.90
52321;DHT22;38261;54.090;13.382;2023-04-10T04:42:29;2.60;99.90
52321;DHT22;38261;54.090;13.382;2023-04-10T04:43:52;2.70;99.90
52321;DHT22;38261;54.090;13.382;2023-04-10T04:45:16;2.90;99.90
52321;DHT22;38261;54.090;13.382;2023-04-10T04:46:39;3.00;99.90
52321;DHT22;38261;54.090;13.382;2023-04-10T04:48:04;3.20;99.90
52321;DHT22;38261;54.090;13.382;2023-04-10T04:49:27;3.50;99.90
52321;DHT22;38261;54.090;13.382;2023-04-10T04:50:49;3.70;99.90
52321;DHT22;38261;54.090;13.382;2023-04-10T04:52:11;4.00;99.90
52321;DHT22;38261;54.090;13.382;2023-04-10T04:53:33;4.40;99.90
52321;DHT22;38261;54.090;13.382;2023-04-10T04:54:55;4.70;99.90
52321;DHT22;38261;54.090;13.382;2023-04-10T04:56:17;4.90;99.90
52321;DHT22;38261;54.090;13.382;2023-04-10T04:57:40;5.10;99.90
52321;DHT22;38261;54.090;13.382;2023-04-10T04:59:02;5.30;99.90
52321;DHT22;38261;54.090;13.382;2023-04-10T05:00:24;5.60;99.90
52321;DHT22;38261;54.090;13.382;2023-04-10T05:01:46;6.00;99.90
52321;DHT22;38261;54.090;13.382;2023-04-10T05:03:09;6.40;99.90
52321;DHT22;38261;54.090;13.382;2023-04-10T05:04:31;6.70;99.90
52321;DHT22;38261;54.090;13.382;2023-04-10T05:05:54;7.10;99.90
52321;DHT22;38261;54.090;13.382;2023-04-10T05:07:16;7.40;99.90
52321;DHT22;38261;54.090;13.382;2023-04-10T05:08:38;7.60;99.90
52321;DHT22;38261;54.090;13.382;2023-04-10T05:10:00;7.70;99.90
52321;DHT22;38261;54.090;13.382;2023-04-10T05:11:23;8.00;99.90
52321;DHT22;38261;54.090;13.382;2023-04-10T05:12:45;8.30;99.90
52321;DHT22;38261;54.090;13.382;2023-04-10T05:14:07;8.50;99.90
52321;DHT22;38261;54.090;13.382;2023-04-10T05:15:29;8.80;99.90
52321;DHT22;38261;54.090;13.382;2023-04-10T05:16:52;9.10;99.90
52321;DHT22;38261;54.090;13.382;2023-04-10T05:18:14;9.30;99.90
52321;DHT22;38261;54.090;13.382;2023-04-10T05:19:40;9.50;99.90
52321;DHT22;38261;54.090;13.382;2023-04-10T05:21:03;9.70;99.90
52321;DHT22;38261;54.090;13.382;2023-04-10T05:22:25;9.80;99.90
52321;DHT22;38261;54.090;13.382;2023-04-10T05:23:48;10.00;99.90
52321;DHT22;38261;54.090;13.382;2023-04-10T05:25:10;10.20;99.90
52321;DHT22;38261;54.090;13.382;2023-04-10T05:26:32;10.20;99.90
52321;DHT22;38261;54.090;13.382;2023-04-10T05:27:55;10.30;99.90
52321;DHT22;38261;54.090;13.382;2023-04-10T05:29:17;10.30;99.90
52321;DHT22;38261;54.090;13.382;2023-04-10T05:30:39;10.30;99.90
52321;DHT22;38261;54.090;13.382;2023-04-10T05:32:02;10.20;99.90
52321;DHT22;38261;54.090;13.382;2023-04-10T05:33:24;10.30;99.90
52321;DHT22;38261;54.090;13.382;2023-04-10T05:34:46;10.20;99.90
52321;DHT22;38261;54.090;13.382;2023-04-10T05:36:09;10.20;99.90
52321;DHT22;38261;54.090;13.382;2023-04-10T05:37:31;10.20;99.90
52321;DHT22;38261;54.090;13.382;2023-04-10T05:38:54;10.30;99.90
52321;DHT22;38261;54.090;13.382;2023-04-10T05:40:17;10.30;99.90
52321;DHT22;38261;54.090;13.382;2023-04-10T05:41:39;10.20;99.90
52321;DHT22;38261;54.090;13.382;2023-04-10T05:43:01;10.20;99.90
52321;DHT22;38261;54.090;13.382;2023-04-10T05:44:23;10.10;99.90
52321;DHT22;38261;54.090;13.382;2023-04-10T05:45:45;10.10;99.90
52321;DHT22;38261;54.090;13.382;2023-04-10T05:47:07;9.90;99.90
52321;DHT22;38261;54.090;13.382;2023-04-10T05:48:29;9.70;99.90
52321;DHT22;38261;54.090;13.382;2023-04-10T05:49:52;9.60;99.90
52321;DHT22;38261;54.090;13.382;2023-04-10T05:51:14;9.40;99.90
52321;DHT22;38261;54.090;13.382;2023-04-10T05:52:36;9.30;99.90
52321;DHT22;38261;54.090;13.382;2023-04-10T05:53:58;9.10;99.90
52321;DHT22;38261;54.090;13.382;2023-04-10T05:55:20;9.00;99.90
52321;DHT22;38261;54.090;13.382;2023-04-10T05:56:42;8.90;99.90
52321;DHT22;38261;54.090;13.382;2023-04-10T05:58:04;8.80;99.90
52321;DHT22;38261;54.090;13.382;2023-04-10T05:59:27;8.70;99.90
52321;DHT22;38261;54.090;13.382;2023-04-10T06:00:49;8.60;99.90
52321;DHT22;38261;54.090;13.382;2023-04-10T06:02:11;8.50;99.90
52321;DHT22;38261;54.090;13.382;2023-04-10T06:03:33;8.30;99.90
52321;DHT22;38261;54.090;13.382;2023-04-10T06:04:55;8.20;99.90
52321;DHT22;38261;54.090;13.382;2023-04-10T06:06:19;8.20;99.90
52321;DHT22;38261;54.090;13.382;2023-04-10T06:07:42;8.10;99.90
52321;DHT22;38261;54.090;13.382;2023-04-10T06:09:04;8.00;99.90
52321;DHT22;38261;54.090;13.382;2023-04-10T06:10:28;7.90;99.90
52321;DHT22;38261;54.090;13.382;2023-04-10T06:11:50;7.90;99.90
52321;DHT22;38261;54.090;13.382;2023-04-10T06:13:14;7.90;99.90
52321;DHT22;38261;54.090;13.382;2023-04-10T06:14:36;7.80;99.90
52321;DHT22;38261;54.090;13.382;2023-04-10T06:15:58;7.90;99.90
52321;DHT22;38261;54.090;13.382;2023-04-10T06:17:20;7.90;99.90
52321;DHT22;38261;54.090;13.382;2023-04-10T06:18:42;7.90;99.90
52321;DHT22;38261;54.090;13.382;2023-04-10T06:20:05;7.90;99.90
52321;DHT22;38261;54.090;13.382;2023-04-10T06:21:27;7.70;99.90
52321;DHT22;38261;54.090;13.382;2023-04-10T06:22:50;7.60;99.90
52321;DHT22;38261;54.090;13.382;2023-04-10T06:24:12;7.50;99.90
52321;DHT22;38261;54.090;13.382;2023-04-10T06:25:35;7.40;99.90
52321;DHT22;38261;54.090;13.382;2023-04-10T06:26:58;7.40;99.90
52321;DHT22;38261;54.090;13.382;2023-04-10T06:28:20;7.40;99.90
52321;DHT22;38261;54.090;13.382;2023-04-10T06:29:43;7.40;99.90
52321;DHT22;38261;54.090;13.382;2023-04-10T06:31:05;7.40;99.90
52321;DHT22;38261;54.090;13.382;2023-04-10T06:32:28;7.50;99.90
52321;DHT22;38261;54.090;13.382;2023-04-10T06:33:50;7.50;99.90
52321;DHT22;38261;54.090;13.382;2023-04-10T06:35:12;7.50;99.90
52321;DHT22;38261;54.090;13.382;2023-04-10T06:36:34;7.40;99.90
52321;DHT22;38261;54.090;13.382;2023-04-10T06:37:56;7.40;99.90
52321;DHT22;38261;54.090;13.382;2023-04-10T06:39:18;7.30;99.90
52321;DHT22;38261;54.090;13.382;2023-04-10T06:40:41;7.20;99.90
52321;DHT22;38261;54.090;13.382;2023-04-10T06:42:03;7.10;99.90
52321;DHT22;38261;54.090;13.382;2023-04-10T06:43:25;7.10;99.90
52321;DHT22;38261;54.090;13.382;2023-04-10T06:44:49;7.10;99.90
52321;DHT22;38261;54.090;13.382;2023-04-10T06:46:11;7.10;99.90
52321;DHT22;38261;54.090;13.382;2023-04-10T06:47:34;7.20;99.90
52321;DHT22;38261;54.090;13.382;2023-04-10T06:48:56;7.20;99.90
52321;DHT22;38261;54.090;13.382;2023-04-10T06:50:18;7.30;99.90
52321;DHT22;38261;54.090;13.382;2023-04-10T06:51:40;7.40;99.90
52321;DHT22;38261;54.090;13.382;2023-04-10T06:53:02;7.40;99.90
52321;DHT22;38261;54.090;13.382;2023-04-10T06:54:25;7.50;99.90
52321;DHT22;38261;54.090;13.382;2023-04-10T06:55:47;7.50;99.90
52321;DHT22;38261;54.090;13.382;2023-04-10T06:57:09;7.60;99.90
52321;DHT22;38261;54.090;13.382;2023-04-10T06:58:31;7.60;99.90
52321;DHT22;38261;54.090;13.382;2023-04-10T06:59:54;7.60;99.90
52321;DHT22;38261;54.090;13.382;2023-04-10T07:01:16;7.60;99.90
52321;DHT22;38261;54.090;13.382;2023-04-10T07:02:38;7.70;99.90
52321;DHT22;38261;54.090;13.382;2023-04-10T07:04:01;7.70;99.90
52321;DHT22;38261;54.090;13.382;2023-04-10T07:05:23;7.80;99.90
52321;DHT22;38261;54.090;13.382;2023-04-10T07:06:45;7.80;99.90
52321;DHT22;38261;54.090;13.382;2023-04-10T07:08:07;7.90;99.90
52321;DHT22;38261;54.090;13.382;2023-04-10T07:09:30;7.90;99.90
52321;DHT22;38261;54.090;13.382;2023-04-10T07:10:52;7.90;99.90
52321;DHT22;38261;54.090;13.382;2023-04-10T07:12:14;8.00;99.90
52321;DHT22;38261;54.090;13.382;2023-04-10T07:13:37;8.10;99.90
52321;DHT22;38261;54.090;13.382;2023-04-10T07:15:01;8.20;99.90
52321;DHT22;38261;54.090;13.382;2023-04-10T07:16:23;8.30;99.90
52321;DHT22;38261;54.090;13.382;2023-04-10T07:17:46;8.40;99.90
52321;DHT22;38261;54.090;13.382;2023-04-10T07:19:09;8.50;99.90
52321;DHT22;38261;54.090;13.382;2023-04-10T07:20:31;8.50;99.90
52321;DHT22;38261;54.090;13.382;2023-04-10T07:21:53;8.60;99.90
52321;DHT22;38261;54.090;13.382;2023-04-10T07:23:15;8.70;99.90
52321;DHT22;38261;54.090;13.382;2023-04-10T07:24:38;8.80;99.90
52321;DHT22;38261;54.090;13.382;2023-04-10T07:26:00;8.80;99.90
52321;DHT22;38261;54.090;13.382;2023-04-10T07:27:22;8.90;99.90
52321;DHT22;38261;54.090;13.382;2023-04-10T07:28:45;8.90;99.90
52321;DHT22;38261;54.090;13.382;2023-04-10T07:30:08;8.90;99.90
52321;DHT22;38261;54.090;13.382;2023-04-10T07:31:32;8.90;99.90
52321;DHT22;38261;54.090;13.382;2023-04-10T07:32:54;9.00;99.90
52321;DHT22;38261;54.090;13.382;2023-04-10T07:34:17;8.90;99.90
52321;DHT22;38261;54.090;13.382;2023-04-10T07:35:39;8.90;99.90
52321;DHT22;38261;54.090;13.382;2023-04-10T07:37:02;8.90;99.90
52321;DHT22;38261;54.090;13.382;2023-04-10T07:38:24;9.00;99.90
52321;DHT22;38261;54.090;13.382;2023-04-10T07:39:48;9.00;99.90
52321;DHT22;38261;54.090;13.382;2023-04-10T07:41:10;9.10;99.90
52321;DHT22;38261;54.090;13.382;2023-04-10T07:42:33;9.20;99.90
52321;DHT22;38261;54.090;13.382;2023-04-10T07:43:55;9.30;99.90
52321;DHT22;38261;54.090;13.382;2023-04-10T07:45:17;9.30;99.90
52321;DHT22;38261;54.090;13.382;2023-04-10T07:46:39;9.30;99.90
52321;DHT22;38261;54.090;13.382;2023-04-10T07:48:02;9.30;99.90
52321;DHT22;38261;54.090;13.382;2023-04-10T07:49:25;9.40;99.90
52321;DHT22;38261;54.090;13.382;2023-04-10T07:50:48;9.50;99.90
52321;DHT22;38261;54.090;13.382;2023-04-10T07:52:10;9.50;99.90
52321;DHT22;38261;54.090;13.382;2023-04-10T07:53:32;9.50;99.90
52321;DHT22;38261;54.090;13.382;2023-04-10T07:54:54;9.70;99.90
52321;DHT22;38261;54.090;13.382;2023-04-10T07:56:17;9.70;99.90
52321;DHT22;38261;54.090;13.382;2023-04-10T07:57:40;9.80;99.90
52321;DHT22;38261;54.090;13.382;2023-04-10T07:59:03;9.70;99.90
52321;DHT22;38261;54.090;13.382;2023-04-10T08:00:25;9.80;99.90
52321;DHT22;38261;54.090;13.382;2023-04-10T08:01:47;9.80;99.90
52321;DHT22;38261;54.090;13.382;2023-04-10T08:03:10;9.90;99.90
52321;DHT22;38261;54.090;13.382;2023-04-10T08:04:32;9.90;99.90
52321;DHT22;38261;54.090;13.382;2023-04-10T08:05:55;10.00;99.90
52321;DHT22;38261;54.090;13.382;2023-04-10T08:07:19;10.00;99.90
52321;DHT22;38261;54.090;13.382;2023-04-10T08:08:44;10.10;99.90
52321;DHT22;38261;54.090;13.382;2023-04-10T08:10:07;10.20;99.90
52321;DHT22;38261;54.090;13.382;2023-04-10T08:11:31;10.30;99.90
52321;DHT22;38261;54.090;13.382;2023-04-10T08:12:54;10.40;99.90
52321;DHT22;38261;54.090;13.382;2023-04-10T08:14:16;10.40;99.90
52321;DHT22;38261;54.090;13.382;2023-04-10T08:15:39;10.40;99.90
52321;DHT22;38261;54.090;13.382;2023-04-10T08:17:01;10.50;99.90
52321;DHT22;38261;54.090;13.382;2023-04-10T08:18:24;10.50;99.90
52321;DHT22;38261;54.090;13.382;2023-04-10T08:19:46;10.50;99.90
52321;DHT22;38261;54.090;13.382;2023-04-10T08:21:08;10.50;99.90
52321;DHT22;38261;54.090;13.382;2023-04-10T08:22:30;10.60;99.90
52321;DHT22;38261;54.090;13.382;2023-04-10T08:23:53;10.70;99.90
52321;DHT22;38261;54.090;13.382;2023-04-10T08:25:15;10.80;99.90
52321;DHT22;38261;54.090;13.382;2023-04-10T08:26:37;10.80;99.90
52321;DHT22;38261;54.090;13.382;2023-04-10T08:28:00;10.90;99.90
52321;DHT22;38261;54.090;13.382;2023-04-10T08:29:22;10.90;99.90
52321;DHT22;38261;54.090;13.382;2023-04-10T08:30:45;11.00;99.90
52321;DHT22;38261;54.090;13.382;2023-04-10T08:32:07;11.10;99.90
52321;DHT22;38261;54.090;13.382;2023-04-10T08:33:29;11.10;99.90
52321;DHT22;38261;54.090;13.382;2023-04-10T08:34:52;11.20;99.90
52321;DHT22;38261;54.090;13.382;2023-04-10T08:36:14;11.20;99.90
52321;DHT22;38261;54.090;13.382;2023-04-10T08:37:40;11.30;99.90
52321;DHT22;38261;54.090;13.382;2023-04-10T08:39:07;11.50;99.90
52321;DHT22;38261;54.090;13.382;2023-04-10T08:40:29;11.50;99.90
52321;DHT22;38261;54.090;13.382;2023-04-10T08:41:51;11.50;99.90
52321;DHT22;38261;54.090;13.382;2023-04-10T08:43:13;11.50;99.90
52321;DHT22;38261;54.090;13.382;2023-04-10T08:44:35;11.60;99.90
52321;DHT22;38261;54.090;13.382;2023-04-10T08:45:58;11.60;99.90
52321;DHT22;38261;54.090;13.382;2023-04-10T08:47:20;11.70;99.90
52321;DHT22;38261;54.090;13.382;2023-04-10T08:48:54;11.80;99.90
52321;DHT22;38261;54.090;13.382;2023-04-10T08:50:18;12.00;99.90
52321;DHT22;38261;54.090;13.382;2023-04-10T08:51:45;12.00;99.90
52321;DHT22;38261;54.090;13.382;2023-04-10T08:53:12;12.00;99.90
52321;DHT22;38261;54.090;13.382;2023-04-10T08:54:37;12.00;99.90
52321;DHT22;38261;54.090;13.382;2023-04-10T08:56:01;12.00;99.90
52321;DHT22;38261;54.090;13.382;2023-04-10T08:57:25;12.10;99.90
52321;DHT22;38261;54.090;13.382;2023-04-10T08:58:50;12.20;99.90
52321;DHT22;38261;54.090;13.382;2023-04-10T09:00:13;12.20;99.90
52321;DHT22;38261;54.090;13.382;2023-04-10T09:01:44;12.20;99.90
52321;DHT22;38261;54.090;13.382;2023-04-10T09:03:09;12.20;99.90